Dati Storici

Data ora Umidita' aria (%) Temperatura aria (°C) Rad globale (W/m²) Gonioanemometro (°) Tacoanemometro (m/s) Pioggia (mm)
06-11-2012 22:10 74.6 % 11.202 2.529 83.43 0.808 0
06-11-2012 22:00 73.9 % 11.257 2.093 35.582 1.265 0
06-11-2012 21:50 73.2 % 11.447 1.811 58.911 2.084 0
06-11-2012 21:40 71.2 % 11.694 1.747 92.754 1.487 0
06-11-2012 21:30 72.8 % 12.054 1.965 111.139 1.543 0
06-11-2012 21:20 76.5 % 11.832 2.58 69.358 1.844 0
06-11-2012 21:10 73.6 % 12.411 3.324 47.032 1.136 0
06-11-2012 21:00 72.8 % 12.652 4.259 319.982 0.254 0
06-11-2012 20:50 73 % 12.631 3.439 262.385 0.494 0
06-11-2012 20:40 73.3 % 12.666 3.157 249.818 1.137 0
06-11-2012 20:30 74.1 % 12.683 2.606 248.04 0.532 0
06-11-2012 20:20 74.1 % 12.82 2.516 212.451 0.787 0
06-11-2012 20:10 75.3 % 12.798 2.375 145.517 1.469 0
06-11-2012 20:00 76.2 % 12.727 2.44 162.953 2.067 0
06-11-2012 19:50 75.2 % 12.808 2.401 215.878 0.964 0
06-11-2012 19:40 75.1 % 12.88 2.606 157.678 1.55 0
06-11-2012 19:30 75.3 % 12.963 2.321 175.867 1.147 0
06-11-2012 19:20 74.7 % 13.106 2.154 169.46 1.302 0
06-11-2012 19:10 75 % 12.943 1.885 201.037 1.027 0
06-11-2012 19:00 75.8 % 12.804 2.411 179.641 0.364 0

I dati sono presentati in modo automatico a scopo informativo. In seguito a verifica i dati possono subire modifiche o essere invalidati e non riportati negli archivi definitivi.